Time;durP1;ratioP1;P1;durP2;ratioP2;P2;SDS_P1;SDS_P2;PMS_P1;PMS_P2;Temp;Humidity;BMP_temperature;BMP_pressure;BME280_temperature;BME280_humidity;BME280_pressure;Samples;Min_cycle;Max_cycle;Signal;HPM_P1;HPM_P2
2021/06/22 00:00:28;;;;;;;3.30;3.00;;;15.30;99.90;;;;;;5053584;28;20040;-62
2021/06/22 00:02:54;;;;;;;3.78;2.88;;;15.30;99.90;;;;;;5026352;28;20040;-63
2021/06/22 00:05:21;;;;;;;3.55;3.05;;;15.30;99.90;;;;;;5056294;28;20047;-63
2021/06/22 00:07:48;;;;;;;4.10;2.83;;;15.30;99.90;;;;;;5037645;28;20032;-63
2021/06/22 00:10:18;;;;;;;2.97;2.30;;;15.30;99.90;;;;;;5029513;28;20029;-63
2021/06/22 00:12:44;;;;;;;4.20;2.65;;;15.30;99.90;;;;;;5055681;28;20028;-63
2021/06/22 00:15:13;;;;;;;5.63;2.45;;;15.30;99.90;;;;;;5049663;28;20601;-63
2021/06/22 00:17:39;;;;;;;5.88;2.40;;;15.30;99.90;;;;;;5057402;28;20020;-62
2021/06/22 00:20:07;;;;;;;3.00;2.70;;;15.20;99.90;;;;;;5059889;28;20032;-63
2021/06/22 00:22:32;;;;;;;3.85;2.00;;;15.20;99.90;;;;;;5057258;28;20040;-62
2021/06/22 00:24:58;;;;;;;2.55;2.03;;;15.10;99.90;;;;;;5045185;28;20037;-63
2021/06/22 00:27:23;;;;;;;3.05;2.17;;;15.10;99.90;;;;;;5056329;28;20029;-62
2021/06/22 00:29:50;;;;;;;4.22;2.20;;;15.10;99.90;;;;;;5028035;28;20045;-62
2021/06/22 00:32:17;;;;;;;4.93;2.33;;;15.10;99.90;;;;;;5049281;28;20636;-62
2021/06/22 00:34:47;;;;;;;2.95;1.90;;;15.10;99.90;;;;;;5042148;28;20033;-62
2021/06/22 00:37:17;;;;;;;2.78;2.00;;;15.10;99.90;;;;;;5020239;28;20028;-62
2021/06/22 00:39:43;;;;;;;5.18;2.60;;;15.00;99.90;;;;;;5039245;28;20028;-63
2021/06/22 00:42:09;;;;;;;4.97;2.05;;;15.00;99.90;;;;;;5034758;28;20029;-62
2021/06/22 00:44:49;;;;;;;3.38;2.45;;;15.00;99.90;;;;;;5039902;28;20099;-63
2021/06/22 00:47:16;;;;;;;2.80;1.92;;;14.90;99.90;;;;;;5036694;28;20021;-61
2021/06/22 00:49:43;;;;;;;5.70;2.60;;;14.90;99.90;;;;;;5037068;28;20025;-62
2021/06/22 00:52:09;;;;;;;3.70;2.35;;;15.00;99.90;;;;;;5042138;28;20116;-63
2021/06/22 00:54:37;;;;;;;3.20;2.08;;;15.00;99.90;;;;;;5044763;28;20136;-63
2021/06/22 00:57:08;;;;;;;2.97;2.20;;;15.00;99.90;;;;;;5055413;28;20036;-62
2021/06/22 00:59:34;;;;;;;2.60;1.90;;;14.90;99.90;;;;;;5033323;28;20033;-63
2021/06/22 01:02:02;;;;;;;2.88;2.20;;;14.90;99.90;;;;;;5047886;28;20453;-62
2021/06/22 01:04:29;;;;;;;4.38;2.13;;;14.90;99.90;;;;;;5048533;28;20041;-62
2021/06/22 01:06:59;;;;;;;3.05;2.28;;;14.90;99.90;;;;;;5049763;28;20032;-62
2021/06/22 01:09:26;;;;;;;4.30;2.20;;;14.90;99.90;;;;;;5047006;28;20063;-63
2021/06/22 01:11:52;;;;;;;2.05;1.80;;;14.90;99.90;;;;;;5043824;28;20017;-61
2021/06/22 01:14:18;;;;;;;2.95;2.22;;;14.90;99.90;;;;;;5046544;28;20075;-61
2021/06/22 01:16:44;;;;;;;2.90;1.95;;;14.90;99.90;;;;;;5043240;28;20055;-63
2021/06/22 01:19:10;;;;;;;4.32;2.22;;;14.90;99.90;;;;;;5042947;28;20097;-63
2021/06/22 01:21:37;;;;;;;5.90;2.25;;;14.90;99.90;;;;;;5047216;28;20478;-63
2021/06/22 01:24:07;;;;;;;3.15;2.30;;;14.90;99.90;;;;;;5045204;28;20692;-63
2021/06/22 01:26:39;;;;;;;5.32;2.45;;;14.90;99.90;;;;;;5047133;28;20078;-62
2021/06/22 01:29:06;;;;;;;5.65;2.42;;;14.90;99.90;;;;;;5047084;28;20028;-62
2021/06/22 01:31:32;;;;;;;3.00;2.50;;;14.90;99.90;;;;;;5032570;28;20542;-63
2021/06/22 01:33:57;;;;;;;3.85;2.58;;;14.90;99.90;;;;;;5046368;28;20029;-64
2021/06/22 01:36:23;;;;;;;3.72;2.30;;;14.80;99.90;;;;;;5045507;28;20021;-63
2021/06/22 01:38:49;;;;;;;5.70;2.80;;;14.90;99.90;;;;;;5044780;28;20025;-63
2021/06/22 01:41:14;;;;;;;3.03;2.30;;;14.80;99.90;;;;;;5046474;28;20719;-64
2021/06/22 01:43:40;;;;;;;4.03;2.35;;;14.80;99.90;;;;;;5046567;28;20036;-63
2021/06/22 01:46:06;;;;;;;3.67;2.60;;;14.70;99.90;;;;;;5049393;28;20025;-64
2021/06/22 01:48:32;;;;;;;3.90;2.88;;;14.80;99.90;;;;;;5043970;28;20138;-63
2021/06/22 01:50:58;;;;;;;4.10;2.40;;;14.70;99.90;;;;;;5048713;28;20017;-63
2021/06/22 01:53:24;;;;;;;3.45;3.03;;;14.70;99.90;;;;;;5046660;28;20143;-63
2021/06/22 01:55:51;;;;;;;5.72;2.70;;;14.80;99.90;;;;;;5045174;28;20108;-64
2021/06/22 01:58:19;;;;;;;5.72;2.65;;;14.70;99.90;;;;;;5045649;28;20022;-65
2021/06/22 02:00:47;;;;;;;7.75;3.40;;;14.80;99.90;;;;;;5045188;28;20402;-62
2021/06/22 02:03:16;;;;;;;3.72;3.30;;;14.70;99.90;;;;;;5032640;28;20414;-62
2021/06/22 02:05:42;;;;;;;4.30;3.05;;;14.70;99.90;;;;;;5039725;28;20560;-63
2021/06/22 02:08:09;;;;;;;3.78;3.25;;;14.70;99.90;;;;;;5049736;28;20041;-62
2021/06/22 02:10:35;;;;;;;8.55;3.60;;;14.60;99.90;;;;;;5052718;28;20123;-63
2021/06/22 02:13:01;;;;;;;3.35;2.92;;;14.60;99.90;;;;;;5044686;28;20032;-63
2021/06/22 02:15:27;;;;;;;5.72;3.30;;;14.60;99.90;;;;;;5047821;28;20105;-63
2021/06/22 02:17:53;;;;;;;5.97;3.33;;;14.40;99.90;;;;;;5050693;28;20037;-63
2021/06/22 02:20:19;;;;;;;6.60;3.05;;;14.40;99.90;;;;;;5051749;28;20028;-63
2021/06/22 02:22:44;;;;;;;4.88;2.80;;;14.40;99.90;;;;;;5047250;28;20112;-63
2021/06/22 02:25:11;;;;;;;3.65;3.10;;;14.30;99.90;;;;;;5046576;28;20078;-62
2021/06/22 02:27:38;;;;;;;5.03;2.70;;;14.30;99.90;;;;;;5048833;28;20082;-62
2021/06/22 02:30:17;;;;;;;2.95;2.42;;;14.30;99.90;;;;;;5039721;28;20137;-63
2021/06/22 02:32:43;;;;;;;6.20;2.78;;;14.30;99.90;;;;;;5049384;28;20035;-63
2021/06/22 02:35:12;;;;;;;3.45;2.75;;;14.20;99.90;;;;;;5049550;28;20079;-62
2021/06/22 02:37:40;;;;;;;3.92;3.13;;;14.20;99.90;;;;;;5050464;28;20376;-63
2021/06/22 02:40:07;;;;;;;6.95;3.53;;;14.20;99.90;;;;;;5050135;28;20482;-63
2021/06/22 02:42:33;;;;;;;3.90;2.70;;;14.10;99.90;;;;;;5046835;28;20031;-61
2021/06/22 02:44:59;;;;;;;5.28;2.80;;;14.10;99.90;;;;;;5053076;28;20025;-62
2021/06/22 02:47:24;;;;;;;2.83;2.55;;;14.10;99.90;;;;;;5048985;28;20048;-63
2021/06/22 02:49:50;;;;;;;3.17;2.53;;;14.10;99.90;;;;;;5050986;28;20021;-63
2021/06/22 02:52:16;;;;;;;4.05;3.33;;;14.10;99.90;;;;;;5056022;28;20401;-63
2021/06/22 02:54:42;;;;;;;4.35;3.13;;;14.10;99.90;;;;;;5048353;28;20539;-62
2021/06/22 02:57:09;;;;;;;3.80;2.92;;;14.10;99.90;;;;;;5044948;28;20140;-63
2021/06/22 02:59:36;;;;;;;4.50;3.47;;;14.10;99.90;;;;;;5043697;28;20029;-63
2021/06/22 03:02:02;;;;;;;6.18;3.22;;;14.20;99.90;;;;;;5050590;28;20037;-63
2021/06/22 03:04:28;;;;;;;3.67;2.80;;;14.10;99.90;;;;;;5031336;28;20031;-62
2021/06/22 03:06:54;;;;;;;5.00;3.55;;;14.10;99.90;;;;;;5032128;28;20029;-64
2021/06/22 03:09:20;;;;;;;4.32;3.50;;;14.10;99.90;;;;;;5048717;28;20446;-61
2021/06/22 03:11:47;;;;;;;6.43;3.28;;;14.10;99.90;;;;;;5049838;28;20100;-62
2021/06/22 03:14:12;;;;;;;6.55;3.30;;;14.10;99.90;;;;;;5048894;28;20025;-63
2021/06/22 03:16:38;;;;;;;3.97;3.42;;;14.10;99.90;;;;;;5053211;28;20498;-63
2021/06/22 03:19:04;;;;;;;4.60;3.50;;;14.10;99.90;;;;;;5027715;28;20111;-63
2021/06/22 03:21:29;;;;;;;4.88;3.25;;;14.00;99.90;;;;;;5044860;28;20025;-64
2021/06/22 03:23:55;;;;;;;4.85;3.63;;;14.00;99.90;;;;;;5039608;28;20029;-63
2021/06/22 03:26:21;;;;;;;4.53;3.53;;;14.10;99.90;;;;;;5042374;28;20398;-63
2021/06/22 03:28:46;;;;;;;5.82;3.08;;;14.00;99.90;;;;;;5049221;28;20040;-63
2021/06/22 03:31:12;;;;;;;6.32;4.00;;;14.10;99.90;;;;;;5032271;28;20048;-63
2021/06/22 03:33:37;;;;;;;4.80;4.00;;;14.10;99.90;;;;;;5042646;28;20025;-64
2021/06/22 03:36:04;;;;;;;7.72;4.35;;;14.10;99.90;;;;;;5047205;28;20028;-61
2021/06/22 03:38:30;;;;;;;7.40;3.70;;;14.00;99.90;;;;;;5049522;28;20024;-62
2021/06/22 03:40:55;;;;;;;5.15;3.70;;;14.00;99.90;;;;;;5046747;28;20519;-63
2021/06/22 03:43:22;;;;;;;6.18;3.65;;;14.00;99.90;;;;;;5047540;28;20029;-64
2021/06/22 03:45:48;;;;;;;4.00;3.20;;;14.00;99.90;;;;;;5049549;28;20056;-63
2021/06/22 03:48:14;;;;;;;5.15;3.85;;;14.00;99.90;;;;;;5044427;28;20032;-63
2021/06/22 03:50:40;;;;;;;7.60;3.55;;;14.10;99.90;;;;;;5045118;28;20025;-63
2021/06/22 03:53:07;;;;;;;5.38;3.92;;;14.10;99.90;;;;;;5048394;28;20029;-60
2021/06/22 03:55:32;;;;;;;6.03;3.83;;;14.00;99.90;;;;;;5030009;28;20688;-63
2021/06/22 03:58:00;;;;;;;4.80;3.70;;;14.00;99.90;;;;;;5040367;28;20107;-63
2021/06/22 04:00:27;;;;;;;6.45;3.92;;;14.00;99.90;;;;;;5044399;28;20041;-63
2021/06/22 04:02:56;;;;;;;9.43;3.85;;;14.10;99.90;;;;;;5043051;28;20119;-64
2021/06/22 04:05:22;;;;;;;5.10;3.85;;;14.00;99.90;;;;;;5054267;28;20025;-64
2021/06/22 04:07:47;;;;;;;7.07;4.20;;;14.00;99.90;;;;;;5054816;28;20029;-63
2021/06/22 04:10:13;;;;;;;6.05;4.07;;;14.00;99.90;;;;;;5053818;28;20505;-64
2021/06/22 04:12:39;;;;;;;7.75;5.32;;;13.90;99.90;;;;;;5045794;28;20032;-62
2021/06/22 04:15:05;;;;;;;5.85;4.47;;;14.00;99.90;;;;;;5031162;28;20132;-63
2021/06/22 04:17:31;;;;;;;7.30;4.25;;;14.00;99.90;;;;;;5049147;28;20086;-63
2021/06/22 04:19:56;;;;;;;7.10;4.78;;;14.00;99.90;;;;;;5047578;28;20025;-61
2021/06/22 04:22:22;;;;;;;5.40;4.55;;;14.00;99.90;;;;;;5027690;28;20398;-62
2021/06/22 04:24:47;;;;;;;6.97;4.70;;;14.00;99.90;;;;;;5045953;28;20612;-63
2021/06/22 04:27:13;;;;;;;5.88;4.88;;;14.00;99.90;;;;;;5047920;28;20033;-63
2021/06/22 04:29:39;;;;;;;8.30;4.75;;;14.00;99.90;;;;;;5046534;28;20040;-63
2021/06/22 04:32:05;;;;;;;9.95;5.75;;;14.00;99.90;;;;;;5030404;28;20524;-63
2021/06/22 04:34:30;;;;;;;8.77;5.65;;;14.00;99.90;;;;;;5047347;28;20028;-62
2021/06/22 04:36:56;;;;;;;8.50;6.13;;;13.90;99.90;;;;;;5047313;28;20056;-62
2021/06/22 04:39:22;;;;;;;11.02;5.70;;;13.90;99.90;;;;;;5045414;28;20060;-63
2021/06/22 04:41:47;;;;;;;7.22;5.20;;;13.90;99.90;;;;;;5045169;28;20028;-63
2021/06/22 04:44:13;;;;;;;7.03;5.53;;;14.00;99.90;;;;;;5045522;28;20023;-62
2021/06/22 04:46:39;;;;;;;11.43;6.18;;;14.00;99.90;;;;;;5046142;28;20021;-62
2021/06/22 04:49:04;;;;;;;9.18;6.00;;;14.00;99.90;;;;;;5047021;28;20029;-63
2021/06/22 04:51:30;;;;;;;7.22;5.45;;;13.90;99.90;;;;;;5047469;28;20817;-62
2021/06/22 04:53:56;;;;;;;7.13;5.35;;;14.00;99.90;;;;;;5046386;28;20026;-62
2021/06/22 04:56:23;;;;;;;10.63;5.20;;;14.00;99.90;;;;;;5045279;28;20407;-63
2021/06/22 04:58:55;;;;;;;8.18;5.82;;;14.00;99.90;;;;;;5046717;28;20021;-63
2021/06/22 05:01:20;;;;;;;7.40;4.85;;;14.00;99.90;;;;;;5045629;28;20419;-62
2021/06/22 05:03:46;;;;;;;9.95;5.47;;;14.00;99.90;;;;;;5027173;28;20033;-62
2021/06/22 05:06:12;;;;;;;5.95;4.90;;;14.00;99.90;;;;;;5045096;28;20556;-63
2021/06/22 05:08:38;;;;;;;7.82;5.13;;;14.10;99.90;;;;;;5040210;28;20091;-60
2021/06/22 05:11:07;;;;;;;7.13;4.68;;;14.10;99.90;;;;;;5046258;28;20033;-63
2021/06/22 05:13:33;;;;;;;7.35;4.68;;;14.00;99.90;;;;;;5026348;28;20021;-61
2021/06/22 05:16:00;;;;;;;6.75;4.30;;;14.10;99.90;;;;;;5046975;28;20104;-62
2021/06/22 05:18:26;;;;;;;7.53;4.80;;;14.00;99.90;;;;;;5048470;28;20029;-63
2021/06/22 05:20:52;;;;;;;7.45;4.50;;;14.10;99.90;;;;;;5044257;28;20033;-63
2021/06/22 05:23:18;;;;;;;7.32;4.40;;;14.10;99.90;;;;;;5044953;28;20086;-63
2021/06/22 05:25:44;;;;;;;6.20;3.88;;;14.10;99.90;;;;;;5043851;28;20036;-61
2021/06/22 05:28:10;;;;;;;5.28;4.60;;;14.10;99.90;;;;;;5046840;28;20171;-63
2021/06/22 05:30:37;;;;;;;4.60;3.40;;;14.10;99.90;;;;;;5026992;28;20132;-62
2021/06/22 05:33:02;;;;;;;7.68;3.40;;;14.20;99.90;;;;;;5040959;28;20032;-63
2021/06/22 05:35:28;;;;;;;6.72;3.20;;;14.20;99.90;;;;;;5045760;28;20513;-63
2021/06/22 05:37:54;;;;;;;7.75;3.55;;;14.20;99.90;;;;;;5046479;28;20049;-64
2021/06/22 05:40:20;;;;;;;7.13;3.50;;;14.20;99.90;;;;;;5047025;28;20511;-63
2021/06/22 05:42:45;;;;;;;6.07;4.13;;;14.10;99.90;;;;;;5045605;28;20040;-62
2021/06/22 05:45:11;;;;;;;5.32;3.67;;;14.10;99.90;;;;;;5050270;28;20660;-63
2021/06/22 05:47:37;;;;;;;4.65;3.53;;;14.10;99.90;;;;;;5045853;28;20048;-60
2021/06/22 05:50:04;;;;;;;7.53;4.10;;;14.10;99.90;;;;;;5050522;28;20028;-64
2021/06/22 05:52:29;;;;;;;10.70;4.25;;;14.20;99.90;;;;;;5045577;28;20036;-63
2021/06/22 05:54:55;;;;;;;7.25;4.55;;;14.20;99.90;;;;;;5050645;28;20422;-63
2021/06/22 05:57:20;;;;;;;6.15;4.55;;;14.20;99.90;;;;;;5043320;28;20029;-63
2021/06/22 05:59:46;;;;;;;6.78;4.03;;;14.20;99.90;;;;;;5046161;28;20037;-63
2021/06/22 06:02:11;;;;;;;4.90;3.92;;;14.20;99.90;;;;;;5045413;28;20043;-62
2021/06/22 06:04:37;;;;;;;6.38;4.40;;;14.20;99.90;;;;;;5059085;28;20064;-61
2021/06/22 06:07:03;;;;;;;7.55;3.97;;;14.20;99.90;;;;;;5050254;28;20075;-61
2021/06/22 06:09:29;;;;;;;5.35;4.20;;;14.20;99.90;;;;;;5044644;28;20518;-61
2021/06/22 06:11:55;;;;;;;4.88;3.92;;;14.20;99.90;;;;;;5046813;28;20094;-64
2021/06/22 06:14:21;;;;;;;6.47;3.95;;;14.20;99.90;;;;;;5040569;28;20025;-62
2021/06/22 06:16:46;;;;;;;8.80;4.40;;;14.20;99.90;;;;;;5050404;28;20509;-63
2021/06/22 06:19:12;;;;;;;6.05;4.40;;;14.20;99.90;;;;;;5050904;28;20056;-64
2021/06/22 06:21:39;;;;;;;6.75;4.35;;;14.20;99.90;;;;;;5051012;28;20041;-63
2021/06/22 06:24:06;;;;;;;8.55;4.30;;;14.20;99.90;;;;;;5048872;28;20071;-62
2021/06/22 06:26:38;;;;;;;7.80;3.75;;;14.40;99.90;;;;;;5043898;28;20575;-62
2021/06/22 06:29:15;;;;;;;7.47;4.07;;;14.50;99.90;;;;;;5046741;28;20055;-62
2021/06/22 06:31:40;;;;;;;5.63;3.47;;;14.50;99.90;;;;;;5033562;28;20072;-63
2021/06/22 06:34:06;;;;;;;5.18;3.47;;;14.50;99.90;;;;;;5043308;28;20059;-62
2021/06/22 06:36:32;;;;;;;5.35;3.13;;;14.50;99.90;;;;;;5049650;28;20041;-62
2021/06/22 06:38:57;;;;;;;10.95;3.30;;;14.60;99.90;;;;;;5047089;28;20035;-62
2021/06/22 06:41:24;;;;;;;5.45;3.33;;;14.70;99.90;;;;;;5048081;28;20449;-63
2021/06/22 06:43:49;;;;;;;13.80;3.65;;;14.70;99.90;;;;;;5046074;28;20032;-64
2021/06/22 06:46:15;;;;;;;8.95;3.78;;;14.60;99.90;;;;;;5046186;28;20095;-62
2021/06/22 06:48:41;;;;;;;4.63;3.63;;;14.70;99.90;;;;;;5052556;28;20031;-63
2021/06/22 06:51:07;;;;;;;6.68;3.28;;;14.70;99.90;;;;;;5037951;28;20517;-63
2021/06/22 06:53:33;;;;;;;3.53;2.60;;;14.90;99.90;;;;;;5050147;28;20029;-63
2021/06/22 06:55:58;;;;;;;5.28;2.65;;;14.90;99.90;;;;;;5048585;28;20025;-64
2021/06/22 06:58:24;;;;;;;3.67;2.75;;;15.00;99.90;;;;;;5045097;28;20036;-63
2021/06/22 07:00:49;;;;;;;5.18;3.42;;;14.90;99.90;;;;;;5049684;28;20025;-64
2021/06/22 07:03:15;;;;;;;6.18;2.70;;;14.90;99.90;;;;;;5049664;28;20029;-63
2021/06/22 07:05:40;;;;;;;4.10;2.47;;;14.90;99.90;;;;;;5046413;28;20025;-62
2021/06/22 07:08:06;;;;;;;8.77;3.28;;;15.00;99.90;;;;;;5047997;28;20413;-64
2021/06/22 07:10:33;;;;;;;4.50;2.70;;;15.20;99.90;;;;;;5049947;28;20406;-64
2021/06/22 07:13:02;;;;;;;5.13;2.80;;;15.30;99.90;;;;;;5048533;28;20017;-63
2021/06/22 07:15:28;;;;;;;2.90;2.15;;;15.30;99.90;;;;;;5047817;28;20028;-63
2021/06/22 07:17:53;;;;;;;4.72;2.25;;;15.50;99.90;;;;;;5048082;28;20441;-64
2021/06/22 07:20:19;;;;;;;5.35;2.65;;;15.50;99.90;;;;;;5042809;28;20033;-64
2021/06/22 07:22:45;;;;;;;5.43;2.15;;;15.70;99.90;;;;;;5029555;28;20526;-64
2021/06/22 07:25:11;;;;;;;3.40;2.10;;;15.90;99.90;;;;;;5046581;28;20502;-63
2021/06/22 07:27:37;;;;;;;4.40;2.40;;;16.10;99.90;;;;;;5041182;28;20165;-60
2021/06/22 07:30:03;;;;;;;4.53;2.22;;;16.40;99.90;;;;;;5026974;28;20142;-63
2021/06/22 07:32:29;;;;;;;6.85;2.42;;;16.50;99.90;;;;;;5030770;28;20116;-63
2021/06/22 07:34:55;;;;;;;4.63;2.20;;;16.20;99.90;;;;;;5048437;28;20562;-64
2021/06/22 07:37:20;;;;;;;2.22;2.00;;;16.00;99.90;;;;;;5047763;28;20051;-63
2021/06/22 07:39:46;;;;;;;3.65;2.10;;;16.20;99.90;;;;;;5030293;28;20033;-62
2021/06/22 07:42:12;;;;;;;3.30;1.83;;;16.40;99.90;;;;;;5052771;28;20445;-63
2021/06/22 07:44:37;;;;;;;3.40;2.60;;;16.20;99.90;;;;;;5045797;28;20029;-63
2021/06/22 07:47:03;;;;;;;5.38;2.28;;;16.30;99.90;;;;;;5046591;28;20037;-63
2021/06/22 07:49:29;;;;;;;2.88;2.35;;;16.30;99.90;;;;;;5047474;28;20196;-62
2021/06/22 07:51:55;;;;;;;6.25;2.00;;;16.30;99.90;;;;;;5052585;28;20417;-63
2021/06/22 07:54:20;;;;;;;3.25;1.98;;;16.50;99.90;;;;;;5050435;28;20104;-63
2021/06/22 07:56:46;;;;;;;4.03;2.38;;;16.60;99.90;;;;;;5047165;28;20036;-62
2021/06/22 07:59:11;;;;;;;4.05;2.55;;;16.50;99.90;;;;;;5043292;28;20102;-62
2021/06/22 08:01:37;;;;;;;3.05;2.38;;;16.40;99.90;;;;;;5041663;28;20063;-62
2021/06/22 08:04:03;;;;;;;3.78;2.35;;;16.50;99.90;;;;;;5043106;28;20033;-63
2021/06/22 08:06:31;;;;;;;2.40;1.88;;;16.60;99.90;;;;;;5047680;28;20036;-63
2021/06/22 08:08:56;;;;;;;8.48;2.20;;;16.80;99.90;;;;;;5046829;28;20028;-61
2021/06/22 08:11:22;;;;;;;4.03;2.35;;;16.70;99.90;;;;;;5022194;28;20368;-62
2021/06/22 08:13:47;;;;;;;3.42;2.05;;;17.00;99.90;;;;;;5046413;28;20068;-63
2021/06/22 08:16:13;;;;;;;4.55;2.80;;;17.20;99.90;;;;;;5044500;28;20048;-62
2021/06/22 08:18:38;;;;;;;4.05;2.58;;;17.30;99.90;;;;;;5042225;28;20021;-63
2021/06/22 08:21:05;;;;;;;4.88;3.00;;;17.30;99.90;;;;;;5046706;28;20029;-63
2021/06/22 08:23:30;;;;;;;4.70;2.55;;;17.30;99.90;;;;;;5042604;28;20041;-63
2021/06/22 08:25:56;;;;;;;5.22;2.90;;;17.20;99.90;;;;;;5047160;28;20031;-63
2021/06/22 08:28:23;;;;;;;5.75;2.60;;;17.30;99.90;;;;;;5022173;28;20036;-64
2021/06/22 08:30:50;;;;;;;7.35;3.63;;;17.50;99.90;;;;;;5027936;28;20090;-63
2021/06/22 08:33:16;;;;;;;11.23;2.90;;;17.40;99.90;;;;;;5045903;28;20032;-62
2021/06/22 08:35:42;;;;;;;9.35;2.85;;;17.40;99.90;;;;;;5040777;28;20029;-61
2021/06/22 08:38:09;;;;;;;4.18;3.42;;;17.30;99.90;;;;;;5043271;28;20110;-64
2021/06/22 08:40:41;;;;;;;4.75;3.00;;;17.40;99.90;;;;;;5048649;28;20063;-63
2021/06/22 08:43:10;;;;;;;5.70;3.05;;;17.10;99.90;;;;;;5047041;28;20052;-62
2021/06/22 08:45:36;;;;;;;6.78;3.60;;;17.50;99.90;;;;;;5042003;28;20035;-63
2021/06/22 08:48:04;;;;;;;4.65;3.03;;;17.70;99.90;;;;;;5029334;28;20056;-63
2021/06/22 08:50:30;;;;;;;5.32;2.35;;;17.40;99.90;;;;;;5040944;28;20025;-63
2021/06/22 08:52:55;;;;;;;3.70;2.15;;;17.60;99.90;;;;;;5039985;28;20029;-64
2021/06/22 08:55:30;;;;;;;8.82;2.38;;;17.50;99.90;;;;;;5042918;28;20097;-63
2021/06/22 08:58:05;;;;;;;6.93;3.00;;;17.70;99.90;;;;;;5045450;28;20025;-63
2021/06/22 09:00:34;;;;;;;6.55;3.13;;;17.70;99.90;;;;;;5039237;28;20029;-62
2021/06/22 09:03:24;;;;;;;3.03;2.47;;;17.70;99.90;;;;;;5039358;28;20025;-63
2021/06/22 09:06:02;;;;;;;5.47;3.10;;;17.60;99.90;;;;;;5034845;28;20045;-63
2021/06/22 09:08:33;;;;;;;6.40;2.40;;;18.00;99.90;;;;;;5041303;28;20021;-64
2021/06/22 09:11:05;;;;;;;3.03;2.25;;;17.90;99.90;;;;;;5046790;28;20107;-64
2021/06/22 09:13:32;;;;;;;3.72;2.10;;;18.20;99.90;;;;;;5035135;28;20028;-64
2021/06/22 09:15:58;;;;;;;3.90;2.50;;;18.20;99.90;;;;;;5061872;28;20063;-62
2021/06/22 09:18:26;;;;;;;3.75;2.35;;;18.30;99.90;;;;;;5051818;28;20014;-63
2021/06/22 09:20:56;;;;;;;5.32;2.40;;;18.30;99.90;;;;;;5033952;28;20035;-62
2021/06/22 09:23:27;;;;;;;4.03;2.50;;;18.20;99.90;;;;;;5058456;28;20536;-62
2021/06/22 09:25:55;;;;;;;3.85;2.22;;;18.30;99.90;;;;;;5054745;28;20036;-63
2021/06/22 09:28:27;;;;;;;7.45;2.70;;;18.30;99.90;;;;;;5051447;28;20017;-63
2021/06/22 09:31:00;;;;;;;3.65;2.25;;;18.30;99.90;;;;;;5055395;28;20033;-64
2021/06/22 09:33:33;;;;;;;4.75;2.65;;;18.30;99.90;;;;;;5035418;28;20047;-62
2021/06/22 09:36:21;;;;;;;3.27;2.63;;;18.30;99.90;;;;;;5052829;28;20048;-64
2021/06/22 09:39:08;;;;;;;4.70;1.98;;;18.20;99.90;;;;;;5047167;28;20491;-62
2021/06/22 09:41:38;;;;;;;6.22;2.58;;;18.10;99.90;;;;;;5049084;28;20037;-63
2021/06/22 09:44:08;;;;;;;3.72;2.35;;;18.10;99.90;;;;;;5054924;28;20104;-63
2021/06/22 09:46:33;;;;;;;4.40;2.65;;;18.20;99.90;;;;;;5052020;28;20032;-62
2021/06/22 09:49:01;;;;;;;3.70;2.80;;;18.40;99.90;;;;;;5056656;28;20028;-61
2021/06/22 09:51:31;;;;;;;3.83;2.90;;;18.60;99.90;;;;;;5061096;28;20032;-61
2021/06/22 09:54:18;;;;;;;3.05;2.10;;;18.50;99.90;;;;;;5038215;28;20093;-63
2021/06/22 09:56:55;;;;;;;8.27;2.40;;;18.40;99.90;;;;;;5055143;28;20025;-64
2021/06/22 09:59:22;;;;;;;8.55;2.40;;;18.50;99.90;;;;;;5055040;28;20136;-64
2021/06/22 10:01:47;;;;;;;3.95;2.22;;;18.60;99.90;;;;;;5047131;28;20490;-64
2021/06/22 10:04:16;;;;;;;4.88;2.65;;;18.80;99.90;;;;;;5048313;28;20050;-63
2021/06/22 10:06:46;;;;;;;6.68;2.53;;;18.90;99.80;;;;;;5047777;28;20040;-63
2021/06/22 10:09:18;;;;;;;5.90;2.88;;;18.80;99.90;;;;;;5041306;28;20745;-63
2021/06/22 10:11:44;;;;;;;8.38;2.92;;;18.90;99.90;;;;;;5023374;28;20487;-63
2021/06/22 10:14:21;;;;;;;9.13;3.00;;;19.00;99.70;;;;;;5050543;28;20035;-63
2021/06/22 10:16:48;;;;;;;5.63;3.00;;;19.10;99.90;;;;;;5059629;28;20506;-63
2021/06/22 10:19:14;;;;;;;5.05;3.28;;;19.20;99.80;;;;;;5052374;28;20036;-62
2021/06/22 10:21:40;;;;;;;3.40;2.08;;;19.30;99.10;;;;;;5064094;28;20490;-63
2021/06/22 10:24:06;;;;;;;5.40;2.75;;;19.40;98.80;;;;;;5046315;28;20051;-62
2021/06/22 10:26:32;;;;;;;5.63;2.80;;;19.40;99.00;;;;;;5043846;28;20033;-61
2021/06/22 10:29:00;;;;;;;4.05;2.65;;;19.40;99.40;;;;;;5035005;28;20032;-63
2021/06/22 10:31:27;;;;;;;7.85;2.97;;;19.10;98.80;;;;;;5031209;28;20029;-62
2021/06/22 10:33:53;;;;;;;8.25;4.32;;;19.10;99.20;;;;;;5044699;28;20033;-62
2021/06/22 10:36:45;;;;;;;5.68;3.20;;;18.90;99.80;;;;;;5056107;28;20025;-63
2021/06/22 10:39:37;;;;;;;6.30;3.30;;;18.70;99.90;;;;;;5048796;28;20025;-63
2021/06/22 10:42:09;;;;;;;9.85;3.60;;;18.60;99.90;;;;;;5037785;28;20063;-63
2021/06/22 10:44:40;;;;;;;7.68;3.58;;;18.70;99.90;;;;;;5049618;28;20025;-62
2021/06/22 10:47:24;;;;;;;5.85;3.20;;;18.80;99.90;;;;;;5053588;28;20020;-63
2021/06/22 10:49:57;;;;;;;6.35;3.30;;;18.90;99.90;;;;;;5048813;28;20490;-63
2021/06/22 10:52:41;;;;;;;5.22;3.38;;;18.90;99.90;;;;;;5043338;28;20386;-63
2021/06/22 10:55:17;;;;;;;9.93;3.90;;;18.60;99.90;;;;;;5051434;28;20359;-63
2021/06/22 10:58:02;;;;;;;7.03;4.15;;;18.20;99.90;;;;;;5057615;28;20111;-64
2021/06/22 11:00:51;;;;;;;10.68;3.53;;;18.00;99.90;;;;;;5047106;28;20029;-64
2021/06/22 11:03:32;;;;;;;8.10;4.18;;;17.80;99.90;;;;;;5044746;28;20494;-64
2021/06/22 11:06:20;;;;;;;13.32;5.22;;;17.70;99.90;;;;;;5042363;28;20017;-63
2021/06/22 11:08:46;;;;;;;7.22;4.05;;;17.70;99.90;;;;;;5041244;28;20021;-64
2021/06/22 11:11:11;;;;;;;11.60;3.95;;;17.70;99.90;;;;;;5031359;28;20429;-63
2021/06/22 11:13:41;;;;;;;8.88;4.07;;;17.80;99.90;;;;;;5046767;28;20033;-62
2021/06/22 11:16:13;;;;;;;6.47;3.88;;;17.70;99.90;;;;;;5046428;28;20029;-63
2021/06/22 11:18:56;;;;;;;10.15;4.22;;;17.70;99.90;;;;;;5039047;28;20104;-64
2021/06/22 11:21:35;;;;;;;10.02;5.18;;;17.70;99.90;;;;;;5046826;28;20067;-64
2021/06/22 11:24:12;;;;;;;9.00;3.50;;;18.00;99.90;;;;;;5048754;28;20032;-64
2021/06/22 11:26:40;;;;;;;6.53;3.92;;;18.10;99.90;;;;;;5032318;28;20425;-64
2021/06/22 11:29:08;;;;;;;7.90;3.90;;;18.20;99.90;;;;;;5045376;28;20016;-64
2021/06/22 11:31:41;;;;;;;7.85;3.65;;;18.30;99.90;;;;;;5038251;28;20032;-62
2021/06/22 11:34:11;;;;;;;10.00;4.45;;;18.20;99.90;;;;;;5044558;28;20032;-64
2021/06/22 11:36:47;;;;;;;9.40;4.90;;;18.10;99.90;;;;;;5058765;28;20025;-64
2021/06/22 11:39:18;;;;;;;6.18;3.80;;;17.90;99.90;;;;;;5047636;28;20355;-64
2021/06/22 11:42:12;;;;;;;11.20;4.28;;;18.00;99.90;;;;;;5055664;28;20494;-63
2021/06/22 11:44:53;;;;;;;4.20;3.65;;;17.80;99.90;;;;;;5046377;28;20147;-63
2021/06/22 11:47:25;;;;;;;6.00;3.88;;;17.80;99.90;;;;;;5055505;28;20032;-64
2021/06/22 11:49:52;;;;;;;12.45;4.22;;;17.70;99.90;;;;;;5049825;28;20029;-63
2021/06/22 11:52:20;;;;;;;10.60;5.00;;;17.60;99.90;;;;;;5047748;28;20471;-64
2021/06/22 11:57:25;;;;;;;8.45;5.13;;;17.40;99.90;;;;;;5047470;28;20032;-64
2021/06/22 11:59:51;;;;;;;5.45;4.25;;;17.30;99.90;;;;;;5053446;28;20036;-63
2021/06/22 12:02:19;;;;;;;8.18;4.80;;;17.30;99.90;;;;;;5042734;28;20083;-63
2021/06/22 12:04:49;;;;;;;8.68;4.70;;;17.30;99.90;;;;;;5055247;28;20044;-64
2021/06/22 12:07:20;;;;;;;8.43;4.22;;;17.40;99.90;;;;;;5130963;27;20610;-63
2021/06/22 12:09:46;;;;;;;7.78;4.60;;;17.50;99.90;;;;;;5091360;28;20025;-65
2021/06/22 12:12:13;;;;;;;10.90;5.15;;;17.50;99.90;;;;;;5099079;28;20023;-64
2021/06/22 12:14:46;;;;;;;13.63;5.40;;;17.50;99.90;;;;;;5096684;28;20162;-64
2021/06/22 12:17:14;;;;;;;6.68;4.70;;;17.50;99.90;;;;;;5095545;28;20110;-64
2021/06/22 12:19:40;;;;;;;10.70;4.35;;;17.70;99.90;;;;;;5083516;28;20452;-63
2021/06/22 12:22:05;;;;;;;10.13;6.20;;;17.90;99.90;;;;;;5087902;28;20032;-65
2021/06/22 12:24:31;;;;;;;7.07;4.78;;;18.20;99.90;;;;;;5092935;28;20032;-65
2021/06/22 12:26:56;;;;;;;8.55;5.13;;;18.30;99.90;;;;;;5084232;28;20413;-64
2021/06/22 12:29:24;;;;;;;8.43;4.78;;;18.50;99.90;;;;;;5084460;28;20023;-62
2021/06/22 12:32:01;;;;;;;7.70;4.18;;;18.60;99.90;;;;;;5072885;28;20397;-63
2021/06/22 12:34:29;;;;;;;6.68;4.15;;;18.90;99.90;;;;;;5074843;28;20033;-64
2021/06/22 12:36:58;;;;;;;10.30;4.45;;;18.90;99.90;;;;;;5082857;28;20177;-65
2021/06/22 12:39:34;;;;;;;7.53;4.47;;;18.90;99.90;;;;;;5084089;28;20020;-61
2021/06/22 12:42:21;;;;;;;8.65;4.38;;;18.70;99.90;;;;;;5080316;28;20030;-61
2021/06/22 12:44:47;;;;;;;8.75;3.80;;;18.80;99.90;;;;;;5084639;28;20016;-61
2021/06/22 12:47:13;;;;;;;7.15;3.97;;;18.80;99.90;;;;;;5094495;28;20024;-62
2021/06/22 12:49:39;;;;;;;6.28;3.58;;;18.70;99.90;;;;;;5087805;28;20131;-60
2021/06/22 12:52:07;;;;;;;7.30;4.72;;;18.50;99.90;;;;;;5087405;28;20019;-57